Time;durP1;ratioP1;P1;durP2;ratioP2;P2;SDS_P1;SDS_P2;PMS_P1;PMS_P2;Temp;Humidity;BMP_temperature;BMP_pressure;BME280_temperature;BME280_humidity;BME280_pressure;Samples;Min_cycle;Max_cycle;Signal;HPM_P1;HPM_P2
2022/07/26 00:00:13;;;;;;;10.13;5.15;;;;;;;19.89;98.05;100302.44;5054678;28;20029;-58
2022/07/26 00:02:40;;;;;;;6.32;4.53;;;;;;;19.88;98.06;100308.81;5061900;28;20057;-55
2022/07/26 00:05:15;;;;;;;5.75;4.40;;;;;;;19.85;97.41;100322.47;5054570;28;20057;-57
2022/07/26 00:07:43;;;;;;;5.80;4.32;;;;;;;19.86;97.49;100321.50;5062651;28;20054;-60
2022/07/26 00:10:11;;;;;;;8.10;4.53;;;;;;;19.85;98.43;100292.25;5062151;28;20064;-57
2022/07/26 00:12:38;;;;;;;10.05;4.65;;;;;;;19.80;98.97;100282.03;5065785;28;20405;-57
2022/07/26 00:15:08;;;;;;;7.18;4.40;;;;;;;19.78;98.75;100277.88;5064376;28;20129;-59
2022/07/26 00:17:35;;;;;;;8.88;4.90;;;;;;;19.77;98.72;100282.38;5054098;28;20408;-53
2022/07/26 00:20:04;;;;;;;11.50;4.80;;;;;;;19.74;99.51;100293.38;5047740;28;20045;-53
2022/07/26 00:22:33;;;;;;;10.23;5.30;;;;;;;19.70;99.57;100292.84;5063155;28;20101;-55
2022/07/26 00:25:03;;;;;;;11.32;5.72;;;;;;;19.68;99.68;100281.47;5048196;28;20053;-54
2022/07/26 00:27:30;;;;;;;7.47;4.43;;;;;;;19.68;99.16;100291.34;5058129;28;20059;-53
2022/07/26 00:29:57;;;;;;;7.85;4.20;;;;;;;19.65;99.08;100295.13;5051714;28;20056;-54
2022/07/26 00:32:24;;;;;;;10.07;4.43;;;;;;;19.66;99.10;100302.16;5050361;28;20077;-56
2022/07/26 00:34:52;;;;;;;9.38;4.13;;;;;;;19.65;99.63;100295.13;5050231;28;20068;-57
2022/07/26 00:37:19;;;;;;;7.60;4.45;;;;;;;19.65;98.92;100297.81;5051864;28;20468;-54
2022/07/26 00:39:47;;;;;;;6.93;4.05;;;;;;;19.64;99.33;100298.81;5053791;28;20132;-57
2022/07/26 00:42:15;;;;;;;8.65;4.07;;;;;;;19.66;99.72;100296.81;5040071;28;20117;-55
2022/07/26 00:44:44;;;;;;;6.43;4.13;;;;;;;19.66;99.98;100310.16;5047856;28;20087;-57
2022/07/26 00:47:12;;;;;;;7.00;4.35;;;;;;;19.62;100.00;100311.47;5050842;28;20059;-56
2022/07/26 00:49:40;;;;;;;7.95;4.65;;;;;;;19.60;100.00;100310.81;5051267;28;20568;-55
2022/07/26 00:52:08;;;;;;;8.43;4.57;;;;;;;19.60;100.00;100301.91;5031904;28;20065;-55
2022/07/26 00:54:36;;;;;;;6.25;4.40;;;;;;;19.58;100.00;100294.03;5029876;28;20063;-56
2022/07/26 00:57:04;;;;;;;8.15;4.75;;;;;;;19.57;100.00;100291.53;5031539;28;20061;-56
2022/07/26 00:59:31;;;;;;;5.78;3.95;;;;;;;19.54;100.00;100287.34;5036191;28;20120;-56
2022/07/26 01:01:58;;;;;;;6.53;4.40;;;;;;;19.49;100.00;100292.31;5051845;28;20303;-58
2022/07/26 01:04:26;;;;;;;8.05;4.57;;;;;;;19.48;100.00;100298.66;5051883;28;20460;-59
2022/07/26 01:06:53;;;;;;;7.70;4.38;;;;;;;19.45;100.00;100293.63;5051249;28;20049;-58
2022/07/26 01:09:20;;;;;;;7.60;5.10;;;;;;;19.46;100.00;100293.47;5044858;28;20509;-57
2022/07/26 01:11:48;;;;;;;7.10;4.53;;;;;;;19.45;100.00;100297.16;5030550;28;20057;-58
2022/07/26 01:14:20;;;;;;;6.53;4.50;;;;;;;19.45;100.00;100301.63;5031938;28;20057;-57
2022/07/26 01:16:47;;;;;;;5.57;4.55;;;;;;;19.44;100.00;100291.94;5030026;28;20393;-58
2022/07/26 01:19:14;;;;;;;8.80;4.53;;;;;;;19.46;100.00;100306.84;5030811;28;20068;-54
2022/07/26 01:21:42;;;;;;;12.30;4.93;;;;;;;19.47;100.00;100313.84;5040582;28;20061;-58
2022/07/26 01:24:09;;;;;;;7.80;4.97;;;;;;;19.48;100.00;100323.53;5040139;28;20132;-57
2022/07/26 01:26:37;;;;;;;5.93;5.13;;;;;;;19.46;100.00;100330.84;5031023;28;20057;-55
2022/07/26 01:29:04;;;;;;;8.77;5.30;;;;;;;19.40;100.00;100327.94;5033900;28;20053;-54
2022/07/26 01:31:32;;;;;;;6.57;4.85;;;;;;;19.37;100.00;100325.63;5050307;28;20512;-56
2022/07/26 01:33:59;;;;;;;9.77;5.97;;;;;;;19.38;100.00;100317.44;5043903;28;20413;-57
2022/07/26 01:36:26;;;;;;;10.48;5.95;;;;;;;19.39;100.00;100320.94;5034906;28;20285;-56
2022/07/26 01:38:53;;;;;;;9.52;5.60;;;;;;;19.41;100.00;100341.16;5049800;28;20401;-55
2022/07/26 01:41:21;;;;;;;9.70;5.63;;;;;;;19.43;100.00;100341.84;5052217;28;20072;-59
2022/07/26 01:44:05;;;;;;;9.52;5.60;;;;;;;19.41;100.00;100329.66;5048329;28;20062;-58
2022/07/26 01:46:34;;;;;;;8.15;6.03;;;;;;;19.36;100.00;100326.59;5055426;28;20524;-54
2022/07/26 01:49:01;;;;;;;12.65;6.53;;;;;;;19.32;100.00;100326.06;5054455;28;20120;-59
2022/07/26 01:51:29;;;;;;;8.65;6.47;;;;;;;19.32;100.00;100333.22;5052465;28;20049;-57
2022/07/26 01:53:56;;;;;;;9.32;5.72;;;;;;;19.33;100.00;100321.56;5058523;28;20052;-58
2022/07/26 01:56:24;;;;;;;9.85;6.38;;;;;;;19.33;100.00;100338.41;5044711;28;20045;-56
2022/07/26 01:58:51;;;;;;;6.80;6.10;;;;;;;19.33;100.00;100334.91;5057598;28;20041;-59
2022/07/26 02:01:18;;;;;;;12.13;6.47;;;;;;;19.23;100.00;100340.34;5050854;28;20049;-58
2022/07/26 02:04:07;;;;;;;10.15;6.03;;;;;;;19.26;100.00;100336.50;5057151;28;20117;-57
2022/07/26 02:06:35;;;;;;;12.40;6.70;;;;;;;19.26;100.00;100337.34;5050429;28;20040;-58
2022/07/26 02:09:03;;;;;;;13.90;7.78;;;;;;;19.28;100.00;100343.38;5046611;28;20045;-57
2022/07/26 02:11:33;;;;;;;10.85;8.10;;;;;;;19.24;100.00;100347.34;5052728;28;20040;-55
2022/07/26 02:14:01;;;;;;;10.80;9.38;;;;;;;19.19;100.00;100345.16;5047879;28;20052;-57
2022/07/26 02:16:28;;;;;;;15.52;10.95;;;;;;;19.15;100.00;100345.59;5055840;28;20044;-60
2022/07/26 02:18:55;;;;;;;12.57;10.30;;;;;;;19.12;100.00;100341.41;5052986;28;20529;-57
2022/07/26 02:21:23;;;;;;;11.20;9.43;;;;;;;19.14;100.00;100349.28;5049491;28;20574;-57
2022/07/26 02:23:50;;;;;;;14.10;9.32;;;;;;;19.17;100.00;100348.94;5050800;28;20054;-59
2022/07/26 02:26:17;;;;;;;13.70;9.50;;;;;;;19.13;100.00;100343.06;5049468;28;20045;-54
2022/07/26 02:28:44;;;;;;;13.52;9.60;;;;;;;19.11;100.00;100337.06;5054044;28;20049;-55
2022/07/26 02:31:11;;;;;;;10.95;9.10;;;;;;;19.13;100.00;100340.41;5056139;22;20056;-57
2022/07/26 02:33:41;;;;;;;13.18;9.52;;;;;;;19.03;100.00;100339.63;5054086;28;20057;-57
2022/07/26 02:36:09;;;;;;;14.05;8.85;;;;;;;19.00;100.00;100339.94;5044786;28;20125;-58
2022/07/26 02:38:36;;;;;;;10.70;8.77;;;;;;;18.97;100.00;100332.25;5054719;28;20124;-58
2022/07/26 02:41:05;;;;;;;12.20;9.07;;;;;;;18.90;100.00;100342.69;5050232;28;20055;-57
2022/07/26 02:43:32;;;;;;;11.15;8.70;;;;;;;18.86;100.00;100337.78;5053116;28;20546;-57
2022/07/26 02:45:59;;;;;;;9.25;8.23;;;;;;;18.79;100.00;100334.06;5053307;28;20061;-59
2022/07/26 02:48:31;;;;;;;9.38;7.60;;;;;;;18.77;100.00;100336.88;5051943;28;20512;-60
2022/07/26 02:50:59;;;;;;;13.60;8.15;;;;;;;18.72;100.00;100341.81;5053044;28;20060;-57
2022/07/26 02:53:26;;;;;;;8.40;7.45;;;;;;;18.69;100.00;100334.13;5048315;28;20064;-60
2022/07/26 02:55:54;;;;;;;10.60;8.98;;;;;;;18.66;100.00;100332.56;5057177;28;20412;-59
2022/07/26 02:58:23;;;;;;;9.35;8.07;;;;;;;18.64;100.00;100331.88;5055029;28;20045;-58
2022/07/26 03:00:51;;;;;;;11.60;7.90;;;;;;;18.66;100.00;100339.72;5046184;28;20055;-57
2022/07/26 03:03:18;;;;;;;8.88;7.93;;;;;;;18.62;100.00;100333.84;5039942;28;20392;-59
2022/07/26 03:05:45;;;;;;;8.95;7.75;;;;;;;18.58;100.00;100332.47;5047454;28;20099;-56
2022/07/26 03:08:12;;;;;;;8.93;7.35;;;;;;;18.57;100.00;100329.97;5046315;28;20375;-61
2022/07/26 03:10:39;;;;;;;10.07;7.78;;;;;;;18.57;100.00;100336.13;5048151;28;20505;-57
2022/07/26 03:13:06;;;;;;;7.90;7.05;;;;;;;18.55;100.00;100332.78;5048683;28;20057;-57
2022/07/26 03:15:33;;;;;;;10.30;7.40;;;;;;;18.54;100.00;100333.75;5056061;28;20056;-58
2022/07/26 03:18:01;;;;;;;12.77;8.25;;;;;;;18.54;100.00;100336.41;5051549;28;20524;-55
2022/07/26 03:20:28;;;;;;;11.25;7.93;;;;;;;18.52;100.00;100341.06;5061491;28;20072;-58
2022/07/26 03:22:55;;;;;;;12.05;7.60;;;;;;;18.51;100.00;100335.88;5055975;28;20059;-60
2022/07/26 03:25:22;;;;;;;13.75;7.60;;;;;;;18.51;100.00;100347.41;5044342;28;20049;-58
2022/07/26 03:27:50;;;;;;;9.68;7.28;;;;;;;18.50;100.00;100339.53;5051950;28;20147;-58
2022/07/26 03:30:17;;;;;;;9.45;7.45;;;;;;;18.49;100.00;100338.69;5058464;28;20045;-58
2022/07/26 03:32:51;;;;;;;9.35;7.72;;;;;;;18.50;100.00;100347.53;5052828;28;20064;-58
2022/07/26 03:35:18;;;;;;;9.07;6.88;;;;;;;18.46;100.00;100346.97;5057712;28;20041;-59
2022/07/26 03:37:46;;;;;;;9.88;7.25;;;;;;;18.42;100.00;100346.44;5058464;28;20049;-56
2022/07/26 03:40:14;;;;;;;9.32;6.88;;;;;;;18.39;100.00;100346.75;5051150;28;20060;-60
2022/07/26 03:42:42;;;;;;;11.55;6.65;;;;;;;18.38;100.00;100344.22;5049223;28;20061;-55
2022/07/26 03:45:10;;;;;;;7.50;6.38;;;;;;;18.40;100.00;100344.91;5058606;28;20542;-60
2022/07/26 03:47:37;;;;;;;10.90;6.47;;;;;;;18.39;100.00;100337.91;5052368;28;20041;-59
2022/07/26 03:50:05;;;;;;;11.80;6.20;;;;;;;18.40;100.00;100344.91;5057956;28;20099;-56
2022/07/26 03:52:32;;;;;;;9.25;5.93;;;;;;;18.38;100.00;100344.22;5045617;28;20049;-60
2022/07/26 03:54:59;;;;;;;11.18;5.72;;;;;;;18.41;100.00;100344.75;5053826;28;20057;-59
2022/07/26 03:57:27;;;;;;;9.73;5.50;;;;;;;18.38;100.00;100349.56;5058227;28;20128;-58
2022/07/26 03:59:54;;;;;;;6.80;4.82;;;;;;;18.38;100.00;100352.22;5046215;28;20049;-56
2022/07/26 04:02:21;;;;;;;11.80;5.18;;;;;;;18.35;100.00;100347.19;5059751;28;20419;-59
2022/07/26 04:04:49;;;;;;;7.97;4.60;;;;;;;18.37;100.00;100358.50;5054539;28;20057;-53
2022/07/26 04:07:16;;;;;;;12.05;5.85;;;;;;;18.30;100.00;100350.28;5051837;28;20489;-54
2022/07/26 04:09:43;;;;;;;9.05;5.38;;;;;;;18.28;100.00;100352.28;5058742;28;20044;-56
2022/07/26 04:12:10;;;;;;;10.60;4.90;;;;;;;18.32;100.00;100353.63;5051572;28;20057;-57
2022/07/26 04:14:41;;;;;;;9.10;4.10;;;;;;;18.30;100.00;100357.44;5062189;28;20049;-59
2022/07/26 04:17:08;;;;;;;10.93;3.47;;;;;;;18.30;98.59;100349.44;5054133;28;20048;-56
2022/07/26 04:19:35;;;;;;;9.18;3.78;;;;;;;18.32;97.59;100358.13;5047310;28;20041;-57
2022/07/26 04:22:05;;;;;;;6.97;3.53;;;;;;;18.32;97.47;100347.47;5052305;28;20068;-57
2022/07/26 04:24:33;;;;;;;9.15;3.35;;;;;;;18.33;97.78;100352.66;5056600;28;20053;-57
2022/07/26 04:27:00;;;;;;;9.88;3.28;;;;;;;18.32;97.53;100360.78;5046593;28;20084;-58
2022/07/26 04:29:27;;;;;;;10.35;4.13;;;;;;;18.28;96.71;100356.72;5058026;28;20053;-56
2022/07/26 04:31:54;;;;;;;7.10;4.05;;;;;;;18.32;97.32;100355.47;5056160;28;20082;-57
2022/07/26 04:34:21;;;;;;;7.88;3.50;;;;;;;18.29;95.80;100359.28;5052054;28;20361;-58
2022/07/26 04:36:48;;;;;;;4.82;3.08;;;;;;;18.32;95.87;100358.13;5055755;28;20063;-54
2022/07/26 04:39:15;;;;;;;10.27;4.05;;;;;;;18.28;95.27;100356.72;5051806;28;20059;-58
2022/07/26 04:41:43;;;;;;;12.35;3.80;;;;;;;18.27;95.28;100358.56;5053901;28;20059;-58
2022/07/26 04:44:10;;;;;;;10.80;3.42;;;;;;;18.31;94.80;100359.13;5049100;28;20056;-58
2022/07/26 04:46:37;;;;;;;7.93;3.50;;;;;;;18.37;94.72;100359.38;5051521;28;20049;-57
2022/07/26 04:49:11;;;;;;;11.57;4.95;;;;;;;18.39;93.11;100351.22;5049900;28;20059;-60
2022/07/26 04:51:38;;;;;;;8.38;3.92;;;;;;;18.40;91.98;100356.41;5057296;28;20047;-56
2022/07/26 04:54:05;;;;;;;9.23;3.85;;;;;;;18.46;91.03;100346.97;5046371;28;20041;-60
2022/07/26 04:56:33;;;;;;;12.38;4.03;;;;;;;18.44;91.50;100363.13;5058943;28;20413;-56
2022/07/26 04:59:00;;;;;;;10.85;3.63;;;;;;;18.46;90.87;100354.97;5052897;28;20115;-56
2022/07/26 05:01:27;;;;;;;12.68;4.10;;;;;;;18.48;90.99;100369.84;5059952;28;20146;-59
2022/07/26 05:03:54;;;;;;;8.85;4.18;;;;;;;18.52;91.18;100369.56;5051144;28;20138;-57
2022/07/26 05:06:22;;;;;;;7.55;3.63;;;;;;;18.55;91.36;100370.09;5055475;28;20052;-56
2022/07/26 05:08:50;;;;;;;7.95;3.65;;;;;;;18.60;90.85;100369.66;5051749;28;20080;-58
2022/07/26 05:11:17;;;;;;;7.53;4.28;;;;;;;18.67;91.00;100374.22;5057817;28;20428;-56
2022/07/26 05:13:44;;;;;;;8.60;4.03;;;;;;;18.75;90.96;100378.84;5056383;28;20061;-58
2022/07/26 05:16:11;;;;;;;8.25;3.53;;;;;;;18.70;90.14;100371.31;5048810;28;20053;-59
2022/07/26 05:18:38;;;;;;;10.77;4.13;;;;;;;18.68;90.58;100375.91;5057725;28;20045;-59
2022/07/26 05:21:12;;;;;;;10.30;4.30;;;;;;;18.66;91.43;100382.38;5053066;28;20041;-57
2022/07/26 05:23:39;;;;;;;8.88;4.05;;;;;;;18.56;92.52;100385.09;5044584;28;20072;-59
2022/07/26 05:26:06;;;;;;;9.98;4.50;;;;;;;18.55;93.54;100385.22;5046074;28;20526;-59
2022/07/26 05:28:33;;;;;;;7.90;3.80;;;;;;;18.59;92.90;100398.13;5053716;28;20051;-59
2022/07/26 05:31:00;;;;;;;13.85;4.50;;;;;;;18.67;91.77;100394.72;5055392;28;20053;-56
2022/07/26 05:33:28;;;;;;;11.77;4.70;;;;;;;18.60;91.15;100402.50;5047728;28;20049;-57
2022/07/26 05:35:55;;;;;;;14.13;4.80;;;;;;;18.63;91.92;100398.66;5057581;28;20056;-58
2022/07/26 05:38:24;;;;;;;13.63;4.25;;;;;;;18.72;91.31;100401.31;5053466;28;20057;-57
2022/07/26 05:40:51;;;;;;;10.48;3.90;;;;;;;18.68;90.80;100407.06;5047214;28;20466;-56
2022/07/26 05:43:18;;;;;;;12.80;4.15;;;;;;;18.72;90.17;100408.47;5057319;28;20056;-58
2022/07/26 05:45:45;;;;;;;10.70;3.45;;;;;;;18.74;88.63;100409.19;5052652;28;20057;-53
2022/07/26 05:48:13;;;;;;;10.48;3.58;;;;;;;18.79;88.61;100409.56;5050864;28;20045;-53
2022/07/26 05:50:40;;;;;;;12.80;3.40;;;;;;;18.85;86.95;100421.47;5045552;28;20059;-62
2022/07/26 05:53:07;;;;;;;10.70;3.35;;;;;;;18.87;86.20;100419.50;5057049;28;20052;-58
2022/07/26 05:55:34;;;;;;;10.50;3.08;;;;;;;18.93;86.19;100408.22;5051223;28;20060;-59
2022/07/26 05:58:02;;;;;;;17.60;3.67;;;;;;;18.98;85.67;100419.28;5054561;28;20071;-56
2022/07/26 06:00:29;;;;;;;9.32;3.50;;;;;;;19.00;86.24;100413.78;5052888;28;20064;-59
2022/07/26 06:02:56;;;;;;;6.82;3.13;;;;;;;19.03;85.39;100425.00;5040780;28;20057;-57
2022/07/26 06:05:23;;;;;;;9.77;3.63;;;;;;;19.14;84.19;100424.81;5053825;28;20064;-58
2022/07/26 06:07:50;;;;;;;18.20;3.80;;;;;;;19.20;83.88;100416.19;5055776;28;20053;-50
2022/07/26 06:10:17;;;;;;;9.27;3.30;;;;;;;19.31;83.93;100427.63;5048001;28;20052;-58
2022/07/26 06:12:44;;;;;;;14.82;4.75;;;;;;;19.19;82.98;100417.19;5055608;28;20075;-50
2022/07/26 06:15:13;;;;;;;11.35;3.15;;;;;;;19.31;83.46;100427.63;5055510;28;20033;-59
2022/07/26 06:17:41;;;;;;;10.40;3.20;;;;;;;19.44;83.07;100415.59;5048031;28;20056;-60
2022/07/26 06:20:09;;;;;;;10.30;3.30;;;;;;;19.61;82.22;100427.28;5047776;28;20067;-56
2022/07/26 06:22:36;;;;;;;9.80;3.80;;;;;;;19.66;81.24;100418.81;5058024;28;20051;-54
2022/07/26 06:25:04;;;;;;;10.25;3.67;;;;;;;19.57;81.52;100417.88;5045939;28;20060;-57
2022/07/26 06:27:31;;;;;;;9.88;2.95;;;;;;;19.76;81.45;100419.56;5059347;28;20049;-60
2022/07/26 06:29:58;;;;;;;14.05;3.30;;;;;;;19.92;80.66;100418.88;5049880;28;20076;-57
2022/07/26 06:32:26;;;;;;;13.77;3.85;;;;;;;19.87;79.93;100422.00;5054639;28;20049;-60
2022/07/26 06:34:53;;;;;;;13.40;3.30;;;;;;;19.87;80.05;100430.03;5048333;28;20348;-54
2022/07/26 06:37:20;;;;;;;8.75;3.40;;;;;;;19.79;80.64;100424.59;5056104;28;20509;-59
2022/07/26 06:39:47;;;;;;;9.90;2.85;;;;;;;19.88;79.42;100422.84;5054352;28;20045;-57
2022/07/26 06:42:14;;;;;;;9.73;2.95;;;;;;;20.07;78.18;100422.63;5058221;28;20409;-59
2022/07/26 06:44:41;;;;;;;13.00;4.60;;;;;;;20.24;77.80;100426.25;5051218;28;20143;-60
2022/07/26 06:47:09;;;;;;;7.82;2.40;;;;;;;20.35;77.35;100430.50;5048070;28;20413;-59
2022/07/26 06:49:36;;;;;;;11.18;3.30;;;;;;;20.36;76.23;100430.34;5056640;28;20140;-57
2022/07/26 06:52:03;;;;;;;8.25;2.67;;;;;;;20.48;75.99;100430.94;5043780;28;20045;-57
2022/07/26 06:54:30;;;;;;;15.45;3.28;;;;;;;20.55;75.48;100431.16;5057733;28;20397;-60
2022/07/26 06:56:57;;;;;;;9.35;3.00;;;;;;;20.59;75.38;100435.19;5050386;28;20049;-51
2022/07/26 06:59:24;;;;;;;14.93;2.85;;;;;;;20.53;74.30;100433.97;5047406;28;20409;-57
2022/07/26 07:01:52;;;;;;;10.65;3.20;;;;;;;20.37;75.44;100421.31;5049367;28;20049;-51
2022/07/26 07:04:30;;;;;;;9.90;2.40;;;;;;;20.58;75.01;100429.00;5044858;28;20444;-57
2022/07/26 07:07:01;;;;;;;12.93;2.40;;;;;;;20.61;74.36;100431.34;5048187;28;20467;-58
2022/07/26 07:09:32;;;;;;;9.63;2.50;;;;;;;20.60;73.12;100439.53;5052665;28;20052;-55
2022/07/26 07:12:01;;;;;;;9.57;2.40;;;;;;;20.36;72.27;100437.53;5053937;28;20566;-58
2022/07/26 07:14:37;;;;;;;9.98;2.08;;;;;;;20.42;71.39;100442.25;5055269;28;20473;-60
2022/07/26 07:17:05;;;;;;;13.00;2.78;;;;;;;20.36;72.64;100443.72;5054307;28;20056;-59
2022/07/26 07:19:40;;;;;;;11.63;2.38;;;;;;;20.43;72.07;100449.25;5046887;28;20053;-53
2022/07/26 07:22:10;;;;;;;7.53;2.45;;;;;;;20.58;72.32;100457.56;5050908;28;20144;-57
2022/07/26 07:24:41;;;;;;;10.07;2.40;;;;;;;20.71;71.24;100456.16;5051602;28;20383;-61
2022/07/26 07:27:09;;;;;;;8.25;2.28;;;;;;;20.85;70.75;100456.50;5055310;28;20392;-63
2022/07/26 07:29:37;;;;;;;12.45;2.80;;;;;;;20.85;70.81;100456.50;5056413;28;20052;-59
2022/07/26 07:32:08;;;;;;;10.05;2.80;;;;;;;20.84;70.20;100462.88;5058161;28;20092;-61
2022/07/26 07:34:46;;;;;;;6.18;2.20;;;;;;;20.74;70.24;100452.28;5052616;28;20068;-62
2022/07/26 07:37:15;;;;;;;9.02;2.72;;;;;;;20.57;70.35;100461.22;5048669;28;20151;-60
2022/07/26 07:39:42;;;;;;;9.68;2.17;;;;;;;20.55;70.27;100453.38;5055229;28;20140;-62
2022/07/26 07:42:09;;;;;;;6.88;2.22;;;;;;;20.54;69.92;100458.91;5053544;28;20055;-56
2022/07/26 07:44:36;;;;;;;5.03;2.28;;;;;;;20.61;69.55;100465.28;5049673;28;20478;-59
2022/07/26 07:47:04;;;;;;;8.23;2.50;;;;;;;20.58;69.14;100457.56;5046186;28;20196;-59
2022/07/26 07:49:31;;;;;;;7.22;2.20;;;;;;;20.64;70.00;100457.78;5053292;28;20053;-57
2022/07/26 07:51:58;;;;;;;7.82;2.20;;;;;;;20.70;68.38;100450.94;5050259;28;20056;-57
2022/07/26 07:54:26;;;;;;;5.32;1.73;;;;;;;20.84;67.68;100458.34;5045337;28;20164;-58
2022/07/26 07:56:55;;;;;;;5.50;2.00;;;;;;;20.98;67.45;100455.09;5046999;28;20057;-59
2022/07/26 07:59:22;;;;;;;7.28;2.15;;;;;;;21.04;66.61;100450.91;5058862;28;20044;-56
2022/07/26 08:01:50;;;;;;;9.90;2.42;;;;;;;21.21;65.92;100463.34;5041642;28;20413;-57
2022/07/26 08:04:17;;;;;;;8.32;1.90;;;;;;;21.17;65.65;100459.31;5044088;28;20053;-60
2022/07/26 08:06:44;;;;;;;7.05;1.80;;;;;;;21.49;66.00;100460.44;5058413;28;20078;-55
2022/07/26 08:09:18;;;;;;;7.85;2.03;;;;;;;21.52;63.67;100462.75;5053086;28;20397;-57
2022/07/26 08:11:45;;;;;;;8.18;3.00;;;;;;;21.52;64.05;100461.91;5051335;28;20135;-60
2022/07/26 08:14:18;;;;;;;7.65;2.47;;;;;;;21.34;63.24;100460.22;5046231;28;20052;-58
2022/07/26 08:16:45;;;;;;;4.65;1.63;;;;;;;21.30;63.65;100460.66;5049201;28;20147;-58
2022/07/26 08:19:13;;;;;;;9.27;2.17;;;;;;;21.37;63.27;100448.34;5057690;28;20521;-57
2022/07/26 08:21:44;;;;;;;9.25;2.20;;;;;;;21.59;63.47;100447.72;5054182;28;20057;-62
2022/07/26 08:24:12;;;;;;;9.10;2.00;;;;;;;21.76;63.72;100450.41;5052833;28;20083;-60
2022/07/26 08:26:40;;;;;;;7.13;1.80;;;;;;;21.96;62.61;100441.00;5071253;28;20067;-60
2022/07/26 08:29:07;;;;;;;11.30;2.40;;;;;;;21.90;62.53;100444.38;5056456;28;20155;-57
2022/07/26 08:31:34;;;;;;;10.13;2.45;;;;;;;21.93;61.76;100452.06;5050388;28;20049;-60
2022/07/26 08:34:01;;;;;;;14.35;2.42;;;;;;;21.87;62.55;100455.41;5059535;28;20052;-61
2022/07/26 08:36:28;;;;;;;8.43;1.80;;;;;;;21.84;62.77;100458.44;5053386;28;20048;-60
2022/07/26 08:39:00;;;;;;;5.72;1.63;;;;;;;21.62;62.72;100457.28;5060543;28;20056;-63
2022/07/26 08:41:27;;;;;;;7.30;1.48;;;;;;;21.63;62.13;100461.63;5049360;28;20186;-60
2022/07/26 08:44:03;;;;;;;3.20;1.17;;;;;;;21.56;61.54;100465.94;5054575;28;20508;-58
2022/07/26 08:46:34;;;;;;;10.05;1.80;;;;;;;21.65;61.10;100467.63;5055005;28;20063;-58
2022/07/26 08:49:01;;;;;;;9.20;2.03;;;;;;;21.72;60.63;100477.53;5050514;28;20042;-60
2022/07/26 08:51:29;;;;;;;10.60;3.40;;;;;;;21.69;60.59;100477.84;5052543;28;20083;-60
2022/07/26 08:53:59;;;;;;;7.65;1.90;;;;;;;21.68;61.33;100478.88;5057395;28;20061;-58
2022/07/26 08:56:35;;;;;;;;;;;;;;;21.86;60.11;100478.72;5052213;28;20201;-62
2022/07/26 08:59:12;;;;;;;3.60;1.20;;;;;;;21.78;60.38;100484.06;5050325;28;20187;-60
2022/07/26 09:01:53;;;;;;;4.00;1.50;;;;;;;21.60;60.47;100481.53;5057024;28;20489;-60
2022/07/26 09:04:23;;;;;;;8.20;2.25;;;;;;;21.64;60.73;100488.22;5050989;28;20508;-59
2022/07/26 09:07:10;;;;;;;6.78;1.73;;;;;;;21.84;60.68;100482.53;5055068;28;20045;-59
2022/07/26 09:10:02;;;;;;;7.40;1.80;;;;;;;22.05;60.57;100479.38;5051624;28;20515;-59
2022/07/26 09:12:30;;;;;;;7.90;2.17;;;;;;;22.15;60.21;100480.91;5052124;28;20072;-59
2022/07/26 09:14:58;;;;;;;11.40;1.70;;;;;;;22.43;59.65;100475.19;5054012;28;20392;-56
2022/07/26 09:17:43;;;;;;;8.15;1.70;;;;;;;22.61;58.13;100475.81;5056629;28;20240;-56
2022/07/26 09:20:13;;;;;;;5.67;1.73;;;;;;;22.54;57.12;100471.28;5047527;28;20056;-57
2022/07/26 09:22:58;;;;;;;6.38;1.83;;;;;;;22.65;56.55;100484.31;5054639;28;20049;-60
2022/07/26 09:25:26;;;;;;;7.53;1.55;;;;;;;22.80;55.71;100476.41;5049776;28;20053;-60
2022/07/26 09:27:53;;;;;;;3.22;1.25;;;;;;;22.91;55.31;100484.94;5052898;28;20049;-58
2022/07/26 09:30:22;;;;;;;4.97;1.02;;;;;;;23.02;54.54;100480.22;5056601;28;20207;-59
2022/07/26 09:32:59;;;;;;;5.82;1.20;;;;;;;22.86;55.68;100476.53;5059821;28;20044;-59
2022/07/26 09:35:28;;;;;;;10.80;1.20;;;;;;;22.97;54.67;100483.44;5047266;28;20076;-60
2022/07/26 09:38:15;;;;;;;10.68;1.60;;;;;;;22.91;55.40;100478.75;5049944;28;20037;-60
2022/07/26 09:40:43;;;;;;;4.15;1.27;;;;;;;23.15;54.97;100489.38;5050305;28;20053;-59
2022/07/26 09:43:17;;;;;;;5.00;1.40;;;;;;;23.37;55.51;100489.59;5055314;28;20056;-59
2022/07/26 09:46:04;;;;;;;10.32;1.60;;;;;;;23.87;54.13;100485.59;5056626;28;20060;-60
2022/07/26 09:48:32;;;;;;;4.53;1.70;;;;;;;24.03;52.89;100477.38;5051530;28;20045;-58
2022/07/26 09:51:39;;;;;;;3.67;1.50;;;;;;;24.12;53.44;100483.53;5052944;28;20573;-59
2022/07/26 09:54:08;;;;;;;6.93;1.30;;;;;;;24.39;52.18;100484.81;5049684;28;20045;-59
2022/07/26 09:56:43;;;;;;;5.95;1.42;;;;;;;24.45;51.88;100482.25;5051725;28;20144;-60
2022/07/26 09:59:13;;;;;;;3.00;1.08;;;;;;;24.28;50.50;100478.00;5051444;28;20056;-60
2022/07/26 10:01:40;;;;;;;4.38;1.30;;;;;;;24.26;51.45;100474.66;5047623;28;20139;-60
2022/07/26 10:04:07;;;;;;;5.47;1.35;;;;;;;24.51;50.88;100477.97;5050677;28;20052;-60
2022/07/26 10:06:35;;;;;;;3.55;1.20;;;;;;;24.68;49.11;100481.31;5056199;28;20051;-60
2022/07/26 10:09:03;;;;;;;3.75;1.00;;;;;;;24.54;49.17;100480.28;5049565;28;20172;-59
2022/07/26 10:11:36;;;;;;;4.63;1.00;;;;;;;24.34;49.63;100479.13;5051529;28;20416;-60
2022/07/26 10:14:41;;;;;;;4.50;1.23;;;;;;;24.26;50.18;100480.84;5050188;28;20520;-60
2022/07/26 10:17:27;;;;;;;2.80;1.30;;;;;;;24.08;50.91;100483.03;5033544;28;20057;-57
2022/07/26 10:20:02;;;;;;;7.97;1.65;;;;;;;23.66;51.86;100480.88;5055729;28;20546;-60
2022/07/26 10:22:34;;;;;;;5.93;1.25;;;;;;;23.57;53.02;100489.97;5053374;28;20363;-59
2022/07/26 10:25:16;;;;;;;7.57;1.42;;;;;;;23.54;52.67;100488.47;5055413;28;20083;-59
2022/07/26 10:27:43;;;;;;;4.90;1.50;;;;;;;23.77;52.56;100485.00;5055056;28;20053;-57
2022/07/26 10:30:16;;;;;;;3.38;1.05;;;;;;;23.74;52.27;100491.56;5055156;28;20048;-60
2022/07/26 10:32:49;;;;;;;4.53;1.52;;;;;;;23.62;52.17;100487.59;5057831;28;20070;-58
2022/07/26 10:35:35;;;;;;;7.70;1.58;;;;;;;23.69;51.98;100491.28;5047357;28;20048;-59
2022/07/26 10:38:04;;;;;;;7.50;1.55;;;;;;;23.60;52.33;100485.09;5056643;28;20052;-60
2022/07/26 10:40:32;;;;;;;6.50;1.25;;;;;;;23.54;52.79;100491.16;5051846;28;20048;-59
2022/07/26 10:43:13;;;;;;;6.72;1.83;;;;;;;23.81;52.88;100499.75;5057077;28;20055;-60
2022/07/26 10:46:12;;;;;;;3.92;0.93;;;;;;;23.46;52.64;100485.84;5048621;28;20505;-57
2022/07/26 10:48:54;;;;;;;9.50;2.58;;;;;;;23.53;52.49;100489.50;5052992;28;20287;-59
2022/07/26 10:51:26;;;;;;;3.75;1.35;;;;;;;23.39;53.17;100501.84;5047766;28;20059;-59
2022/07/26 10:54:04;;;;;;;4.32;1.50;;;;;;;23.35;52.37;100505.06;5048174;28;20354;-58
2022/07/26 10:56:31;;;;;;;7.65;1.58;;;;;;;23.39;52.38;100496.47;5048882;28;20538;-58
2022/07/26 10:59:00;;;;;;;3.45;1.30;;;;;;;23.72;51.40;100496.28;5057887;28;20520;-59
2022/07/26 11:01:32;;;;;;;3.67;1.30;;;;;;;23.94;50.40;100487.38;5047260;28;20048;-59
2022/07/26 11:04:00;;;;;;;4.78;1.20;;;;;;;24.23;50.83;100494.69;5042917;28;20223;-57
2022/07/26 11:06:30;;;;;;;7.38;1.52;;;;;;;24.52;49.68;100503.84;5050614;28;20060;-58
2022/07/26 11:09:08;;;;;;;5.88;1.40;;;;;;;24.87;49.67;100490.69;5044545;28;20204;-59
2022/07/26 11:11:35;;;;;;;7.55;1.50;;;;;;;24.90;48.23;100490.28;5049372;28;20044;-60
2022/07/26 11:14:07;;;;;;;3.72;2.13;;;;;;;24.62;49.72;100495.50;5052130;28;20053;-59
2022/07/26 11:16:37;;;;;;;5.18;1.65;;;;;;;25.01;49.21;100492.53;5053713;28;20052;-57
2022/07/26 11:19:14;;;;;;;10.48;1.63;;;;;;;25.36;48.94;100500.88;5050862;28;20156;-60
2022/07/26 11:21:43;;;;;;;4.93;1.45;;;;;;;25.53;48.09;100507.66;5050850;28;20533;-60
2022/07/26 11:24:10;;;;;;;5.43;1.23;;;;;;;25.74;48.16;100501.47;5045516;28;20136;-60
2022/07/26 11:26:42;;;;;;;5.18;1.50;;;;;;;25.67;47.04;100490.63;5042785;28;20061;-61
2022/07/26 11:29:09;;;;;;;3.25;1.38;;;;;;;25.72;47.42;100492.75;5050703;28;20179;-60